sensor_id;sensor_type;location;lat;lon;timestamp;temperature;humidity
33645;DHT22;19986;48.190;16.366;2024-03-23T00:54:26;16.30;99.90
33645;DHT22;19986;48.190;16.366;2024-03-23T00:56:52;16.40;99.90
33645;DHT22;19986;48.190;16.366;2024-03-23T00:59:18;16.40;99.90
33645;DHT22;19986;48.190;16.366;2024-03-23T01:01:45;16.40;99.90
33645;DHT22;19986;48.190;16.366;2024-03-23T01:04:13;16.40;99.90
33645;DHT22;19986;48.190;16.366;2024-03-23T01:06:42;16.40;99.90
33645;DHT22;19986;48.190;16.366;2024-03-23T01:09:08;16.40;99.90
33645;DHT22;19986;48.190;16.366;2024-03-23T01:11:37;16.30;99.90
33645;DHT22;19986;48.190;16.366;2024-03-23T01:14:03;16.30;99.90
33645;DHT22;19986;48.190;16.366;2024-03-23T01:16:30;16.30;99.90
33645;DHT22;19986;48.190;16.366;2024-03-23T01:18:58;16.30;99.90
33645;DHT22;19986;48.190;16.366;2024-03-23T01:21:24;16.30;99.90
33645;DHT22;19986;48.190;16.366;2024-03-23T01:23:51;16.30;99.90
33645;DHT22;19986;48.190;16.366;2024-03-23T01:26:21;16.30;99.90
33645;DHT22;19986;48.190;16.366;2024-03-23T01:28:48;16.30;99.90
33645;DHT22;19986;48.190;16.366;2024-03-23T01:31:16;16.30;99.90
33645;DHT22;19986;48.190;16.366;2024-03-23T01:33:42;16.30;99.90
33645;DHT22;19986;48.190;16.366;2024-03-23T01:36:10;16.30;99.90
33645;DHT22;19986;48.190;16.366;2024-03-23T01:38:40;16.30;99.90
33645;DHT22;19986;48.190;16.366;2024-03-23T01:41:06;16.40;99.90
33645;DHT22;19986;48.190;16.366;2024-03-23T01:43:33;16.30;99.90
33645;DHT22;19986;48.190;16.366;2024-03-23T01:46:01;16.30;99.90
33645;DHT22;19986;48.190;16.366;2024-03-23T01:48:27;16.30;99.90
33645;DHT22;19986;48.190;16.366;2024-03-23T01:50:54;16.30;99.90
33645;DHT22;19986;48.190;16.366;2024-03-23T01:53:20;16.30;99.90
33645;DHT22;19986;48.190;16.366;2024-03-23T01:55:50;16.30;99.90
33645;DHT22;19986;48.190;16.366;2024-03-23T01:58:17;16.30;99.90
33645;DHT22;19986;48.190;16.366;2024-03-23T02:00:46;16.30;99.90
33645;DHT22;19986;48.190;16.366;2024-03-23T02:03:28;16.20;99.90
33645;DHT22;19986;48.190;16.366;2024-03-23T02:05:54;16.20;99.90
33645;DHT22;19986;48.190;16.366;2024-03-23T02:08:23;16.20;99.90
33645;DHT22;19986;48.190;16.366;2024-03-23T02:10:51;16.20;99.90
33645;DHT22;19986;48.190;16.366;2024-03-23T02:13:18;16.30;99.90
33645;DHT22;19986;48.190;16.366;2024-03-23T02:15:47;16.20;99.90
33645;DHT22;19986;48.190;16.366;2024-03-23T02:18:16;16.30;99.90
33645;DHT22;19986;48.190;16.366;2024-03-23T02:20:43;16.20;99.90
33645;DHT22;19986;48.190;16.366;2024-03-23T02:23:14;16.30;99.90
33645;DHT22;19986;48.190;16.366;2024-03-23T02:25:42;16.30;99.90
33645;DHT22;19986;48.190;16.366;2024-03-23T02:28:09;16.20;99.90
33645;DHT22;19986;48.190;16.366;2024-03-23T02:30:35;16.30;99.90
33645;DHT22;19986;48.190;16.366;2024-03-23T02:33:01;16.20;99.90
33645;DHT22;19986;48.190;16.366;2024-03-23T02:35:30;16.30;99.90
33645;DHT22;19986;48.190;16.366;2024-03-23T02:37:57;16.30;99.90
33645;DHT22;19986;48.190;16.366;2024-03-23T02:40:23;16.20;99.90
33645;DHT22;19986;48.190;16.366;2024-03-23T02:42:51;16.20;99.90
33645;DHT22;19986;48.190;16.366;2024-03-23T02:45:18;16.20;99.90
33645;DHT22;19986;48.190;16.366;2024-03-23T02:47:45;16.20;99.90
33645;DHT22;19986;48.190;16.366;2024-03-23T02:50:22;16.20;99.90
33645;DHT22;19986;48.190;16.366;2024-03-23T02:52:49;16.10;99.90
33645;DHT22;19986;48.190;16.366;2024-03-23T02:55:16;16.10;99.90
33645;DHT22;19986;48.190;16.366;2024-03-23T02:57:46;16.10;99.90
33645;DHT22;19986;48.190;16.366;2024-03-23T03:00:13;16.10;99.90
33645;DHT22;19986;48.190;16.366;2024-03-23T03:02:40;16.00;99.90
33645;DHT22;19986;48.190;16.366;2024-03-23T03:05:08;16.00;99.90
33645;DHT22;19986;48.190;16.366;2024-03-23T03:07:34;16.00;99.90
33645;DHT22;19986;48.190;16.366;2024-03-23T03:10:01;16.00;99.90
33645;DHT22;19986;48.190;16.366;2024-03-23T03:12:27;16.00;99.90
33645;DHT22;19986;48.190;16.366;2024-03-23T03:14:55;15.90;99.90
33645;DHT22;19986;48.190;16.366;2024-03-23T03:17:24;15.90;99.90
33645;DHT22;19986;48.190;16.366;2024-03-23T03:19:50;15.90;99.90
33645;DHT22;19986;48.190;16.366;2024-03-23T03:22:24;15.90;99.90
33645;DHT22;19986;48.190;16.366;2024-03-23T03:24:50;15.90;99.90
33645;DHT22;19986;48.190;16.366;2024-03-23T03:27:16;15.80;99.90
33645;DHT22;19986;48.190;16.366;2024-03-23T03:29:42;15.80;99.90
33645;DHT22;19986;48.190;16.366;2024-03-23T03:32:08;15.80;99.90
33645;DHT22;19986;48.190;16.366;2024-03-23T03:34:34;15.80;99.90
33645;DHT22;19986;48.190;16.366;2024-03-23T03:37:00;15.80;99.90
33645;DHT22;19986;48.190;16.366;2024-03-23T03:39:27;15.90;99.90
33645;DHT22;19986;48.190;16.366;2024-03-23T03:41:55;15.90;99.90
33645;DHT22;19986;48.190;16.366;2024-03-23T03:44:21;15.90;99.90
33645;DHT22;19986;48.190;16.366;2024-03-23T03:46:50;15.90;99.90
33645;DHT22;19986;48.190;16.366;2024-03-23T03:49:17;15.90;99.90
33645;DHT22;19986;48.190;16.366;2024-03-23T03:51:42;15.90;99.90
33645;DHT22;19986;48.190;16.366;2024-03-23T03:54:10;15.90;99.90
33645;DHT22;19986;48.190;16.366;2024-03-23T03:56:38;15.80;99.90
33645;DHT22;19986;48.190;16.366;2024-03-23T03:59:07;15.80;99.90
33645;DHT22;19986;48.190;16.366;2024-03-23T04:01:33;15.70;99.90
33645;DHT22;19986;48.190;16.366;2024-03-23T04:03:59;15.70;99.90
33645;DHT22;19986;48.190;16.366;2024-03-23T04:06:28;15.70;99.90
33645;DHT22;19986;48.190;16.366;2024-03-23T04:08:54;15.60;99.90
33645;DHT22;19986;48.190;16.366;2024-03-23T04:11:20;15.60;99.90
33645;DHT22;19986;48.190;16.366;2024-03-23T04:13:47;15.60;99.90
33645;DHT22;19986;48.190;16.366;2024-03-23T04:16:28;15.60;99.90
33645;DHT22;19986;48.190;16.366;2024-03-23T04:18:54;15.60;99.90
33645;DHT22;19986;48.190;16.366;2024-03-23T04:21:22;15.60;99.90
33645;DHT22;19986;48.190;16.366;2024-03-23T04:23:48;15.60;99.90
33645;DHT22;19986;48.190;16.366;2024-03-23T04:26:15;15.60;99.90
33645;DHT22;19986;48.190;16.366;2024-03-23T04:28:44;15.60;99.90
33645;DHT22;19986;48.190;16.366;2024-03-23T04:31:10;15.60;99.90
33645;DHT22;19986;48.190;16.366;2024-03-23T04:33:36;15.70;99.90
33645;DHT22;19986;48.190;16.366;2024-03-23T04:36:04;15.70;99.90
33645;DHT22;19986;48.190;16.366;2024-03-23T04:38:30;15.70;99.90
33645;DHT22;19986;48.190;16.366;2024-03-23T04:40:58;15.70;99.90
33645;DHT22;19986;48.190;16.366;2024-03-23T04:43:25;15.70;99.90
33645;DHT22;19986;48.190;16.366;2024-03-23T04:45:52;15.70;99.90
33645;DHT22;19986;48.190;16.366;2024-03-23T04:48:20;15.70;99.90
33645;DHT22;19986;48.190;16.366;2024-03-23T04:50:49;15.60;99.90
33645;DHT22;19986;48.190;16.366;2024-03-23T04:53:15;15.60;99.90
33645;DHT22;19986;48.190;16.366;2024-03-23T04:55:42;15.60;99.90
33645;DHT22;19986;48.190;16.366;2024-03-23T04:58:08;15.50;99.90
33645;DHT22;19986;48.190;16.366;2024-03-23T05:00:39;15.60;99.90
33645;DHT22;19986;48.190;16.366;2024-03-23T05:03:05;15.70;99.90
33645;DHT22;19986;48.190;16.366;2024-03-23T05:05:31;15.70;99.90
33645;DHT22;19986;48.190;16.366;2024-03-23T05:07:59;15.60;99.90
33645;DHT22;19986;48.190;16.366;2024-03-23T05:10:25;15.60;99.90
33645;DHT22;19986;48.190;16.366;2024-03-23T05:12:51;15.60;99.90
33645;DHT22;19986;48.190;16.366;2024-03-23T05:15:19;15.70;99.90
33645;DHT22;19986;48.190;16.366;2024-03-23T05:17:45;15.70;99.90
33645;DHT22;19986;48.190;16.366;2024-03-23T05:20:11;15.60;99.90
33645;DHT22;19986;48.190;16.366;2024-03-23T05:22:39;15.70;99.90
33645;DHT22;19986;48.190;16.366;2024-03-23T05:25:05;15.70;99.90
33645;DHT22;19986;48.190;16.366;2024-03-23T05:27:33;15.70;99.90
33645;DHT22;19986;48.190;16.366;2024-03-23T05:29:59;15.70;99.90
33645;DHT22;19986;48.190;16.366;2024-03-23T05:32:25;15.80;99.90
33645;DHT22;19986;48.190;16.366;2024-03-23T05:34:51;15.80;99.90
33645;DHT22;19986;48.190;16.366;2024-03-23T05:37:22;15.80;99.90
33645;DHT22;19986;48.190;16.366;2024-03-23T05:39:48;15.80;99.90
33645;DHT22;19986;48.190;16.366;2024-03-23T05:42:17;15.90;99.90
33645;DHT22;19986;48.190;16.366;2024-03-23T05:44:46;15.90;99.90
33645;DHT22;19986;48.190;16.366;2024-03-23T05:47:12;16.00;99.90
33645;DHT22;19986;48.190;16.366;2024-03-23T05:49:42;16.00;99.90
33645;DHT22;19986;48.190;16.366;2024-03-23T05:52:09;16.00;99.90
33645;DHT22;19986;48.190;16.366;2024-03-23T05:54:35;16.10;99.90
33645;DHT22;19986;48.190;16.366;2024-03-23T05:57:03;16.10;99.90
33645;DHT22;19986;48.190;16.366;2024-03-23T05:59:31;16.10;99.90
33645;DHT22;19986;48.190;16.366;2024-03-23T06:01:57;16.20;99.90
33645;DHT22;19986;48.190;16.366;2024-03-23T06:04:24;16.20;99.90
33645;DHT22;19986;48.190;16.366;2024-03-23T06:06:51;16.30;99.90
33645;DHT22;19986;48.190;16.366;2024-03-23T06:09:20;16.40;99.90
33645;DHT22;19986;48.190;16.366;2024-03-23T06:11:46;16.50;99.90
33645;DHT22;19986;48.190;16.366;2024-03-23T06:14:13;16.50;99.90
33645;DHT22;19986;48.190;16.366;2024-03-23T06:16:39;16.60;99.90
33645;DHT22;19986;48.190;16.366;2024-03-23T06:19:06;16.70;99.90
33645;DHT22;19986;48.190;16.366;2024-03-23T06:21:35;16.80;99.90
33645;DHT22;19986;48.190;16.366;2024-03-23T06:24:03;16.90;99.90
33645;DHT22;19986;48.190;16.366;2024-03-23T06:26:29;16.90;99.90
33645;DHT22;19986;48.190;16.366;2024-03-23T06:28:56;16.80;99.90
33645;DHT22;19986;48.190;16.366;2024-03-23T06:31:22;16.70;99.90
33645;DHT22;19986;48.190;16.366;2024-03-23T06:33:48;16.70;99.90
33645;DHT22;19986;48.190;16.366;2024-03-23T06:36:15;16.60;99.90
33645;DHT22;19986;48.190;16.366;2024-03-23T06:38:40;16.60;99.90
33645;DHT22;19986;48.190;16.366;2024-03-23T06:41:07;16.60;99.90
33645;DHT22;19986;48.190;16.366;2024-03-23T06:43:33;16.60;99.90
33645;DHT22;19986;48.190;16.366;2024-03-23T06:45:59;16.60;99.90
33645;DHT22;19986;48.190;16.366;2024-03-23T06:48:27;16.60;99.90
33645;DHT22;19986;48.190;16.366;2024-03-23T06:50:57;16.60;99.90
33645;DHT22;19986;48.190;16.366;2024-03-23T06:53:23;16.50;99.90
33645;DHT22;19986;48.190;16.366;2024-03-23T06:55:53;16.60;99.90
33645;DHT22;19986;48.190;16.366;2024-03-23T06:58:24;16.60;99.90
33645;DHT22;19986;48.190;16.366;2024-03-23T07:00:50;16.60;99.90
33645;DHT22;19986;48.190;16.366;2024-03-23T07:03:19;16.70;99.90
33645;DHT22;19986;48.190;16.366;2024-03-23T07:05:46;16.80;99.90
33645;DHT22;19986;48.190;16.366;2024-03-23T07:08:12;16.80;99.90
33645;DHT22;19986;48.190;16.366;2024-03-23T07:10:41;16.80;99.90
33645;DHT22;19986;48.190;16.366;2024-03-23T07:13:07;16.80;99.90
33645;DHT22;19986;48.190;16.366;2024-03-23T07:15:35;16.80;99.90
33645;DHT22;19986;48.190;16.366;2024-03-23T07:18:01;16.90;99.90
33645;DHT22;19986;48.190;16.366;2024-03-23T07:20:27;17.00;99.90
33645;DHT22;19986;48.190;16.366;2024-03-23T07:22:57;17.00;99.90
33645;DHT22;19986;48.190;16.366;2024-03-23T07:25:23;17.10;99.90
33645;DHT22;19986;48.190;16.366;2024-03-23T07:27:51;17.10;99.90
33645;DHT22;19986;48.190;16.366;2024-03-23T07:30:18;17.00;99.90
33645;DHT22;19986;48.190;16.366;2024-03-23T07:32:45;17.00;99.90
33645;DHT22;19986;48.190;16.366;2024-03-23T07:35:16;17.10;99.90
33645;DHT22;19986;48.190;16.366;2024-03-23T07:37:43;17.00;99.90
33645;DHT22;19986;48.190;16.366;2024-03-23T07:40:13;17.10;99.90
33645;DHT22;19986;48.190;16.366;2024-03-23T07:42:39;17.10;99.90
33645;DHT22;19986;48.190;16.366;2024-03-23T07:45:06;17.20;99.90
33645;DHT22;19986;48.190;16.366;2024-03-23T07:47:32;17.30;99.90
33645;DHT22;19986;48.190;16.366;2024-03-23T07:49:58;17.50;99.90
33645;DHT22;19986;48.190;16.366;2024-03-23T07:52:28;17.50;99.90
33645;DHT22;19986;48.190;16.366;2024-03-23T07:54:54;17.50;99.90
33645;DHT22;19986;48.190;16.366;2024-03-23T07:57:21;17.40;99.90
33645;DHT22;19986;48.190;16.366;2024-03-23T07:59:47;17.40;99.90
33645;DHT22;19986;48.190;16.366;2024-03-23T08:02:13;17.50;99.90
33645;DHT22;19986;48.190;16.366;2024-03-23T08:04:39;17.60;99.90
33645;DHT22;19986;48.190;16.366;2024-03-23T08:07:06;17.60;99.90
33645;DHT22;19986;48.190;16.366;2024-03-23T08:09:32;17.70;99.90
33645;DHT22;19986;48.190;16.366;2024-03-23T08:11:58;17.70;99.90
33645;DHT22;19986;48.190;16.366;2024-03-23T08:14:24;17.70;99.90
33645;DHT22;19986;48.190;16.366;2024-03-23T08:16:50;17.60;99.90
33645;DHT22;19986;48.190;16.366;2024-03-23T08:19:17;17.60;99.90
33645;DHT22;19986;48.190;16.366;2024-03-23T08:21:43;17.50;99.90
33645;DHT22;19986;48.190;16.366;2024-03-23T08:24:09;17.50;99.90
33645;DHT22;19986;48.190;16.366;2024-03-23T08:26:35;17.50;99.90
33645;DHT22;19986;48.190;16.366;2024-03-23T08:29:03;17.50;99.90
33645;DHT22;19986;48.190;16.366;2024-03-23T08:31:29;17.60;99.90
33645;DHT22;19986;48.190;16.366;2024-03-23T08:33:55;17.50;99.90
33645;DHT22;19986;48.190;16.366;2024-03-23T08:36:21;17.50;99.90
33645;DHT22;19986;48.190;16.366;2024-03-23T08:38:48;17.60;99.90
33645;DHT22;19986;48.190;16.366;2024-03-23T08:41:16;17.70;99.90
33645;DHT22;19986;48.190;16.366;2024-03-23T08:43:45;17.80;99.90
33645;DHT22;19986;48.190;16.366;2024-03-23T08:46:15;17.90;99.90
33645;DHT22;19986;48.190;16.366;2024-03-23T08:48:43;18.10;99.90
33645;DHT22;19986;48.190;16.366;2024-03-23T08:51:15;18.10;99.90
33645;DHT22;19986;48.190;16.366;2024-03-23T08:53:42;18.00;99.90
33645;DHT22;19986;48.190;16.366;2024-03-23T08:56:09;18.00;99.90
33645;DHT22;19986;48.190;16.366;2024-03-23T08:58:36;18.10;99.90
33645;DHT22;19986;48.190;16.366;2024-03-23T09:01:07;18.20;99.90
33645;DHT22;19986;48.190;16.366;2024-03-23T09:03:33;18.40;99.90
33645;DHT22;19986;48.190;16.366;2024-03-23T09:06:06;18.50;99.90
33645;DHT22;19986;48.190;16.366;2024-03-23T09:08:32;18.60;99.90
33645;DHT22;19986;48.190;16.366;2024-03-23T09:11:04;18.80;99.90
33645;DHT22;19986;48.190;16.366;2024-03-23T09:13:34;18.90;99.90
33645;DHT22;19986;48.190;16.366;2024-03-23T09:16:00;19.00;99.90
33645;DHT22;19986;48.190;16.366;2024-03-23T09:18:32;19.10;99.90
33645;DHT22;19986;48.190;16.366;2024-03-23T09:20:59;19.30;99.90
33645;DHT22;19986;48.190;16.366;2024-03-23T09:23:26;19.40;99.90
33645;DHT22;19986;48.190;16.366;2024-03-23T09:25:54;19.60;98.80
33645;DHT22;19986;48.190;16.366;2024-03-23T09:28:20;19.70;98.60
33645;DHT22;19986;48.190;16.366;2024-03-23T09:30:46;19.80;98.80
33645;DHT22;19986;48.190;16.366;2024-03-23T09:33:12;20.00;98.50
33645;DHT22;19986;48.190;16.366;2024-03-23T09:35:39;20.10;98.20
33645;DHT22;19986;48.190;16.366;2024-03-23T09:38:06;20.30;98.30
33645;DHT22;19986;48.190;16.366;2024-03-23T09:40:40;20.60;98.00
33645;DHT22;19986;48.190;16.366;2024-03-23T09:43:07;20.80;97.50
33645;DHT22;19986;48.190;16.366;2024-03-23T09:45:38;20.90;97.40
33645;DHT22;19986;48.190;16.366;2024-03-23T09:48:05;21.00;97.60
33645;DHT22;19986;48.190;16.366;2024-03-23T09:50:31;21.20;97.60
33645;DHT22;19986;48.190;16.366;2024-03-23T09:52:57;21.30;97.70
33645;DHT22;19986;48.190;16.366;2024-03-23T09:55:23;21.60;97.20
33645;DHT22;19986;48.190;16.366;2024-03-23T09:57:50;21.80;96.90
33645;DHT22;19986;48.190;16.366;2024-03-23T10:00:16;21.90;96.90
33645;DHT22;19986;48.190;16.366;2024-03-23T10:02:42;22.10;96.60
33645;DHT22;19986;48.190;16.366;2024-03-23T10:05:22;22.20;96.60
33645;DHT22;19986;48.190;16.366;2024-03-23T10:07:50;22.50;96.10
33645;DHT22;19986;48.190;16.366;2024-03-23T10:10:16;22.60;96.30
33645;DHT22;19986;48.190;16.366;2024-03-23T10:12:47;22.80;96.10
33645;DHT22;19986;48.190;16.366;2024-03-23T10:15:23;23.10;95.10
33645;DHT22;19986;48.190;16.366;2024-03-23T10:17:52;23.30;94.70
33645;DHT22;19986;48.190;16.366;2024-03-23T10:20:22;23.40;94.50
33645;DHT22;19986;48.190;16.366;2024-03-23T10:22:49;23.50;94.50
33645;DHT22;19986;48.190;16.366;2024-03-23T10:25:17;23.60;94.50
33645;DHT22;19986;48.190;16.366;2024-03-23T10:27:43;23.70;94.30
33645;DHT22;19986;48.190;16.366;2024-03-23T10:30:11;23.70;93.90
33645;DHT22;19986;48.190;16.366;2024-03-23T10:32:38;23.60;93.80
33645;DHT22;19986;48.190;16.366;2024-03-23T10:35:17;23.40;93.00
33645;DHT22;19986;48.190;16.366;2024-03-23T10:37:51;23.20;93.40
33645;DHT22;19986;48.190;16.366;2024-03-23T10:40:19;23.00;94.00
33645;DHT22;19986;48.190;16.366;2024-03-23T10:42:45;22.90;94.30
33645;DHT22;19986;48.190;16.366;2024-03-23T10:45:11;22.90;94.50
33645;DHT22;19986;48.190;16.366;2024-03-23T10:47:37;22.90;94.40
33645;DHT22;19986;48.190;16.366;2024-03-23T10:50:04;22.90;94.30
33645;DHT22;19986;48.190;16.366;2024-03-23T10:52:35;23.00;94.30
33645;DHT22;19986;48.190;16.366;2024-03-23T10:55:04;22.90;94.40
33645;DHT22;19986;48.190;16.366;2024-03-23T10:57:41;23.00;94.50
33645;DHT22;19986;48.190;16.366;2024-03-23T11:00:09;23.10;94.60
33645;DHT22;19986;48.190;16.366;2024-03-23T11:02:36;23.30;93.60
33645;DHT22;19986;48.190;16.366;2024-03-23T11:05:03;23.30;93.00
33645;DHT22;19986;48.190;16.366;2024-03-23T11:07:51;23.40;92.90
33645;DHT22;19986;48.190;16.366;2024-03-23T11:10:31;23.60;92.80
33645;DHT22;19986;48.190;16.366;2024-03-23T11:15:43;23.90;92.30
33645;DHT22;19986;48.190;16.366;2024-03-23T11:18:09;24.10;91.80
33645;DHT22;19986;48.190;16.366;2024-03-23T11:20:36;24.20;91.30
33645;DHT22;19986;48.190;16.366;2024-03-23T11:23:04;24.40;90.70
33645;DHT22;19986;48.190;16.366;2024-03-23T11:25:30;24.60;90.90
33645;DHT22;19986;48.190;16.366;2024-03-23T11:28:12;24.70;90.60
33645;DHT22;19986;48.190;16.366;2024-03-23T11:30:38;24.80;90.50
33645;DHT22;19986;48.190;16.366;2024-03-23T11:33:04;24.80;90.50
33645;DHT22;19986;48.190;16.366;2024-03-23T11:35:34;24.90;90.30
33645;DHT22;19986;48.190;16.366;2024-03-23T11:38:07;24.90;90.20
33645;DHT22;19986;48.190;16.366;2024-03-23T11:40:34;24.80;90.30
33645;DHT22;19986;48.190;16.366;2024-03-23T11:43:03;24.70;90.60
33645;DHT22;19986;48.190;16.366;2024-03-23T11:45:35;24.60;90.70
33645;DHT22;19986;48.190;16.366;2024-03-23T11:48:22;24.50;90.80
33645;DHT22;19986;48.190;16.366;2024-03-23T11:50:50;24.40;90.70
33645;DHT22;19986;48.190;16.366;2024-03-23T11:53:21;24.30;90.80
33645;DHT22;19986;48.190;16.366;2024-03-23T11:55:56;24.10;91.10
33645;DHT22;19986;48.190;16.366;2024-03-23T11:58:25;24.10;91.40
33645;DHT22;19986;48.190;16.366;2024-03-23T12:00:52;23.90;91.40
33645;DHT22;19986;48.190;16.366;2024-03-23T12:03:20;23.90;91.60
33645;DHT22;19986;48.190;16.366;2024-03-23T12:05:53;23.80;91.80
33645;DHT22;19986;48.190;16.366;2024-03-23T12:08:32;23.80;92.00
33645;DHT22;19986;48.190;16.366;2024-03-23T12:11:12;23.70;92.00
33645;DHT22;19986;48.190;16.366;2024-03-23T12:13:41;23.70;92.20
33645;DHT22;19986;48.190;16.366;2024-03-23T12:16:18;23.70;92.00
33645;DHT22;19986;48.190;16.366;2024-03-23T12:18:48;23.60;92.20
33645;DHT22;19986;48.190;16.366;2024-03-23T12:21:15;23.50;92.10
33645;DHT22;19986;48.190;16.366;2024-03-23T12:23:43;23.40;92.10
33645;DHT22;19986;48.190;16.366;2024-03-23T12:26:13;23.30;92.10
33645;DHT22;19986;48.190;16.366;2024-03-23T12:28:39;23.20;92.40
33645;DHT22;19986;48.190;16.366;2024-03-23T12:31:05;23.20;92.30
33645;DHT22;19986;48.190;16.366;2024-03-23T12:33:31;23.10;92.50
33645;DHT22;19986;48.190;16.366;2024-03-23T12:35:57;23.10;92.50
33645;DHT22;19986;48.190;16.366;2024-03-23T12:38:23;23.00;92.70
33645;DHT22;19986;48.190;16.366;2024-03-23T12:40:50;22.90;92.50
33645;DHT22;19986;48.190;16.366;2024-03-23T12:43:17;22.90;92.70
33645;DHT22;19986;48.190;16.366;2024-03-23T12:45:49;22.90;92.80
33645;DHT22;19986;48.190;16.366;2024-03-23T12:48:16;22.80;92.80
33645;DHT22;19986;48.190;16.366;2024-03-23T12:50:42;22.70;93.20
33645;DHT22;19986;48.190;16.366;2024-03-23T12:53:08;22.70;93.50
33645;DHT22;19986;48.190;16.366;2024-03-23T12:55:37;22.60;94.00
33645;DHT22;19986;48.190;16.366;2024-03-23T12:58:03;22.50;94.70
33645;DHT22;19986;48.190;16.366;2024-03-23T13:00:30;22.20;96.50
33645;DHT22;19986;48.190;16.366;2024-03-23T13:02:56;21.80;97.40
33645;DHT22;19986;48.190;16.366;2024-03-23T13:05:22;21.40;98.30
33645;DHT22;19986;48.190;16.366;2024-03-23T13:07:49;21.00;98.70
33645;DHT22;19986;48.190;16.366;2024-03-23T13:10:15;20.70;99.20
33645;DHT22;19986;48.190;16.366;2024-03-23T13:12:41;20.40;99.80
33645;DHT22;19986;48.190;16.366;2024-03-23T13:15:08;20.10;99.90
33645;DHT22;19986;48.190;16.366;2024-03-23T13:17:34;19.80;99.90
33645;DHT22;19986;48.190;16.366;2024-03-23T13:20:00;19.70;99.90
33645;DHT22;19986;48.190;16.366;2024-03-23T13:22:27;19.60;99.90
33645;DHT22;19986;48.190;16.366;2024-03-23T13:24:56;19.50;99.90
33645;DHT22;19986;48.190;16.366;2024-03-23T13:27:22;19.40;99.90
33645;DHT22;19986;48.190;16.366;2024-03-23T13:29:48;19.10;99.90
33645;DHT22;19986;48.190;16.366;2024-03-23T13:32:14;18.80;99.90
33645;DHT22;19986;48.190;16.366;2024-03-23T13:34:40;18.60;99.90
33645;DHT22;19986;48.190;16.366;2024-03-23T13:37:06;18.30;99.90
33645;DHT22;19986;48.190;16.366;2024-03-23T13:39:33;18.10;99.90
33645;DHT22;19986;48.190;16.366;2024-03-23T13:42:00;17.90;99.90
33645;DHT22;19986;48.190;16.366;2024-03-23T13:44:26;17.80;99.90
33645;DHT22;19986;48.190;16.366;2024-03-23T13:46:52;17.60;99.90
33645;DHT22;19986;48.190;16.366;2024-03-23T13:49:30;17.60;99.90
33645;DHT22;19986;48.190;16.366;2024-03-23T13:51:58;17.60;99.90
33645;DHT22;19986;48.190;16.366;2024-03-23T13:54:26;17.50;99.90
33645;DHT22;19986;48.190;16.366;2024-03-23T13:56:53;17.30;99.90
33645;DHT22;19986;48.190;16.366;2024-03-23T13:59:20;17.10;99.90
33645;DHT22;19986;48.190;16.366;2024-03-23T14:01:50;16.90;99.90
33645;DHT22;19986;48.190;16.366;2024-03-23T14:04:25;16.60;99.90
33645;DHT22;19986;48.190;16.366;2024-03-23T14:06:52;16.50;99.90
33645;DHT22;19986;48.190;16.366;2024-03-23T14:09:19;16.40;99.90
33645;DHT22;19986;48.190;16.366;2024-03-23T14:11:50;16.20;99.90
33645;DHT22;19986;48.190;16.366;2024-03-23T14:14:19;16.20;99.90
33645;DHT22;19986;48.190;16.366;2024-03-23T14:16:48;16.10;99.90
33645;DHT22;19986;48.190;16.366;2024-03-23T14:19:16;16.00;99.90
33645;DHT22;19986;48.190;16.366;2024-03-23T14:22:00;16.00;99.90
33645;DHT22;19986;48.190;16.366;2024-03-23T14:24:27;15.90;99.90
33645;DHT22;19986;48.190;16.366;2024-03-23T14:26:53;15.70;99.90
33645;DHT22;19986;48.190;16.366;2024-03-23T14:29:19;15.50;99.90
33645;DHT22;19986;48.190;16.366;2024-03-23T14:31:45;15.20;99.90
33645;DHT22;19986;48.190;16.366;2024-03-23T14:34:11;15.10;99.90
33645;DHT22;19986;48.190;16.366;2024-03-23T14:36:37;14.90;99.90
33645;DHT22;19986;48.190;16.366;2024-03-23T14:39:05;14.80;99.90
33645;DHT22;19986;48.190;16.366;2024-03-23T14:41:32;14.70;99.90
33645;DHT22;19986;48.190;16.366;2024-03-23T14:44:01;14.60;99.90
33645;DHT22;19986;48.190;16.366;2024-03-23T14:46:27;14.50;99.90
33645;DHT22;19986;48.190;16.366;2024-03-23T14:48:54;14.50;99.90
33645;DHT22;19986;48.190;16.366;2024-03-23T14:51:20;14.40;99.90
33645;DHT22;19986;48.190;16.366;2024-03-23T14:53:47;14.30;99.90
33645;DHT22;19986;48.190;16.366;2024-03-23T14:56:14;14.20;99.90
33645;DHT22;19986;48.190;16.366;2024-03-23T14:58:41;14.10;99.90
33645;DHT22;19986;48.190;16.366;2024-03-23T15:01:08;14.10;99.90
33645;DHT22;19986;48.190;16.366;2024-03-23T15:03:37;14.10;99.90
33645;DHT22;19986;48.190;16.366;2024-03-23T15:06:05;14.20;99.90
33645;DHT22;19986;48.190;16.366;2024-03-23T15:08:35;14.00;99.90
33645;DHT22;19986;48.190;16.366;2024-03-23T15:11:02;13.90;99.90
33645;DHT22;19986;48.190;16.366;2024-03-23T15:13:35;13.60;99.90
33645;DHT22;19986;48.190;16.366;2024-03-23T15:16:01;13.50;99.90
33645;DHT22;19986;48.190;16.366;2024-03-23T15:18:35;13.40;99.90
33645;DHT22;19986;48.190;16.366;2024-03-23T15:21:02;13.30;99.90
33645;DHT22;19986;48.190;16.366;2024-03-23T15:23:32;13.20;99.90
33645;DHT22;19986;48.190;16.366;2024-03-23T15:26:00;13.10;99.90
33645;DHT22;19986;48.190;16.366;2024-03-23T15:28:28;13.10;99.90
33645;DHT22;19986;48.190;16.366;2024-03-23T15:31:05;13.10;99.90
33645;DHT22;19986;48.190;16.366;2024-03-23T15:33:33;13.10;99.90
33645;DHT22;19986;48.190;16.366;2024-03-23T15:36:02;13.20;99.90
33645;DHT22;19986;48.190;16.366;2024-03-23T15:38:30;13.10;99.90
33645;DHT22;19986;48.190;16.366;2024-03-23T15:40:56;13.00;99.90
33645;DHT22;19986;48.190;16.366;2024-03-23T15:43:22;12.90;99.90
33645;DHT22;19986;48.190;16.366;2024-03-23T15:46:04;12.90;99.90
33645;DHT22;19986;48.190;16.366;2024-03-23T15:48:32;12.70;99.90
33645;DHT22;19986;48.190;16.366;2024-03-23T15:50:59;12.60;99.90
33645;DHT22;19986;48.190;16.366;2024-03-23T15:53:26;12.60;99.90
33645;DHT22;19986;48.190;16.366;2024-03-23T15:55:59;12.70;99.90
33645;DHT22;19986;48.190;16.366;2024-03-23T15:58:26;12.70;99.90
33645;DHT22;19986;48.190;16.366;2024-03-23T16:00:56;12.80;99.90
33645;DHT22;19986;48.190;16.366;2024-03-23T16:03:23;12.90;99.90
33645;DHT22;19986;48.190;16.366;2024-03-23T16:05:56;12.90;99.90
33645;DHT22;19986;48.190;16.366;2024-03-23T16:08:23;12.90;99.90
33645;DHT22;19986;48.190;16.366;2024-03-23T16:10:51;12.90;99.90
33645;DHT22;19986;48.190;16.366;2024-03-23T16:13:18;13.00;99.90
33645;DHT22;19986;48.190;16.366;2024-03-23T16:16:00;13.00;99.90